sensor_id;sensor_type;location;lat;lon;timestamp;temperature;humidity
50738;DHT22;36703;48.154;17.126;2022-12-07T00:03:43;9.80;55.50
50738;DHT22;36703;48.154;17.126;2022-12-07T00:07:45;9.70;55.30
50738;DHT22;36703;48.154;17.126;2022-12-07T00:11:50;9.80;55.40
50738;DHT22;36703;48.154;17.126;2022-12-07T00:15:52;9.70;55.40
50738;DHT22;36703;48.154;17.126;2022-12-07T00:19:57;9.80;55.30
50738;DHT22;36703;48.154;17.126;2022-12-07T00:23:59;9.80;55.30
50738;DHT22;36703;48.154;17.126;2022-12-07T00:28:00;9.70;55.30
50738;DHT22;36703;48.154;17.126;2022-12-07T00:32:03;9.80;55.40
50738;DHT22;36703;48.154;17.126;2022-12-07T00:36:07;9.80;55.30
50738;DHT22;36703;48.154;17.126;2022-12-07T00:40:11;9.80;55.30
50738;DHT22;36703;48.154;17.126;2022-12-07T00:44:13;9.80;55.30
50738;DHT22;36703;48.154;17.126;2022-12-07T00:48:14;9.80;55.30
50738;DHT22;36703;48.154;17.126;2022-12-07T00:52:16;9.70;55.30
50738;DHT22;36703;48.154;17.126;2022-12-07T00:56:19;9.70;55.30
50738;DHT22;36703;48.154;17.126;2022-12-07T01:00:22;9.80;55.30
50738;DHT22;36703;48.154;17.126;2022-12-07T01:04:24;9.80;55.20
50738;DHT22;36703;48.154;17.126;2022-12-07T01:08:27;9.70;55.20
50738;DHT22;36703;48.154;17.126;2022-12-07T01:12:28;9.70;55.30
50738;DHT22;36703;48.154;17.126;2022-12-07T01:16:31;9.60;55.30
50738;DHT22;36703;48.154;17.126;2022-12-07T01:20:34;9.60;55.30
50738;DHT22;36703;48.154;17.126;2022-12-07T01:24:35;9.60;55.40
50738;DHT22;36703;48.154;17.126;2022-12-07T01:28:37;9.60;55.40
50738;DHT22;36703;48.154;17.126;2022-12-07T01:32:38;9.60;55.30
50738;DHT22;36703;48.154;17.126;2022-12-07T01:36:40;9.60;55.30
50738;DHT22;36703;48.154;17.126;2022-12-07T01:40:41;9.50;55.30
50738;DHT22;36703;48.154;17.126;2022-12-07T01:49:24;9.40;55.50
50738;DHT22;36703;48.154;17.126;2022-12-07T01:53:39;9.40;55.70
50738;DHT22;36703;48.154;17.126;2022-12-07T01:57:48;9.50;55.60
50738;DHT22;36703;48.154;17.126;2022-12-07T02:01:51;9.50;55.60
50738;DHT22;36703;48.154;17.126;2022-12-07T02:05:54;9.50;55.60
50738;DHT22;36703;48.154;17.126;2022-12-07T02:09:56;9.50;55.60
50738;DHT22;36703;48.154;17.126;2022-12-07T02:13:58;9.50;56.20
50738;DHT22;36703;48.154;17.126;2022-12-07T02:30:57;9.50;55.60
50738;DHT22;36703;48.154;17.126;2022-12-07T02:39:19;9.60;55.60
50738;DHT22;36703;48.154;17.126;2022-12-07T02:43:48;9.60;55.60
50738;DHT22;36703;48.154;17.126;2022-12-07T02:47:56;9.60;55.60
50738;DHT22;36703;48.154;17.126;2022-12-07T02:52:00;9.60;55.60
50738;DHT22;36703;48.154;17.126;2022-12-07T03:00:31;9.60;55.50
50738;DHT22;36703;48.154;17.126;2022-12-07T03:05:05;9.60;55.50
50738;DHT22;36703;48.154;17.126;2022-12-07T03:09:19;9.60;56.20
50738;DHT22;36703;48.154;17.126;2022-12-07T03:17:46;9.60;55.60
50738;DHT22;36703;48.154;17.126;2022-12-07T03:21:57;9.60;55.70
50738;DHT22;36703;48.154;17.126;2022-12-07T03:26:02;9.60;55.70
50738;DHT22;36703;48.154;17.126;2022-12-07T03:30:17;9.60;55.70
50738;DHT22;36703;48.154;17.126;2022-12-07T03:34:38;9.50;55.80
50738;DHT22;36703;48.154;17.126;2022-12-07T03:38:53;9.50;55.90
50738;DHT22;36703;48.154;17.126;2022-12-07T03:43:02;9.40;56.00
50738;DHT22;36703;48.154;17.126;2022-12-07T03:47:26;9.40;56.10
50738;DHT22;36703;48.154;17.126;2022-12-07T03:55:46;9.40;56.20
50738;DHT22;36703;48.154;17.126;2022-12-07T03:59:48;9.50;56.20
50738;DHT22;36703;48.154;17.126;2022-12-07T04:03:51;9.50;56.20
50738;DHT22;36703;48.154;17.126;2022-12-07T04:07:52;9.60;56.20
50738;DHT22;36703;48.154;17.126;2022-12-07T04:11:54;9.60;56.20
50738;DHT22;36703;48.154;17.126;2022-12-07T04:15:55;9.70;56.20
50738;DHT22;36703;48.154;17.126;2022-12-07T04:19:57;9.60;56.00
50738;DHT22;36703;48.154;17.126;2022-12-07T04:23:58;9.60;56.10
50738;DHT22;36703;48.154;17.126;2022-12-07T04:28:00;9.60;56.20
50738;DHT22;36703;48.154;17.126;2022-12-07T04:32:01;9.70;56.20
50738;DHT22;36703;48.154;17.126;2022-12-07T04:36:03;9.70;56.10
50738;DHT22;36703;48.154;17.126;2022-12-07T04:40:08;9.70;56.10
50738;DHT22;36703;48.154;17.126;2022-12-07T04:44:13;9.70;56.20
50738;DHT22;36703;48.154;17.126;2022-12-07T04:48:15;9.70;56.30
50738;DHT22;36703;48.154;17.126;2022-12-07T04:52:17;9.70;56.30
50738;DHT22;36703;48.154;17.126;2022-12-07T04:56:19;9.70;56.30
50738;DHT22;36703;48.154;17.126;2022-12-07T05:00:20;9.70;56.30
50738;DHT22;36703;48.154;17.126;2022-12-07T05:04:22;9.70;56.30
50738;DHT22;36703;48.154;17.126;2022-12-07T05:08:24;9.80;56.20
50738;DHT22;36703;48.154;17.126;2022-12-07T05:12:25;9.80;56.20
50738;DHT22;36703;48.154;17.126;2022-12-07T05:16:27;9.80;56.20
50738;DHT22;36703;48.154;17.126;2022-12-07T05:20:29;9.70;56.00
50738;DHT22;36703;48.154;17.126;2022-12-07T05:24:31;9.70;56.20
50738;DHT22;36703;48.154;17.126;2022-12-07T05:28:32;9.70;56.20
50738;DHT22;36703;48.154;17.126;2022-12-07T05:32:34;9.60;56.20
50738;DHT22;36703;48.154;17.126;2022-12-07T05:36:35;9.60;56.20
50738;DHT22;36703;48.154;17.126;2022-12-07T05:40:37;9.60;56.30
50738;DHT22;36703;48.154;17.126;2022-12-07T05:44:40;9.50;56.20
50738;DHT22;36703;48.154;17.126;2022-12-07T05:48:45;9.50;56.40
50738;DHT22;36703;48.154;17.126;2022-12-07T05:52:47;9.60;56.40
50738;DHT22;36703;48.154;17.126;2022-12-07T05:56:48;9.50;56.40
50738;DHT22;36703;48.154;17.126;2022-12-07T06:00:50;9.50;56.30
50738;DHT22;36703;48.154;17.126;2022-12-07T06:04:51;9.40;56.40
50738;DHT22;36703;48.154;17.126;2022-12-07T06:08:53;9.50;56.50
50738;DHT22;36703;48.154;17.126;2022-12-07T06:12:54;9.50;56.50
50738;DHT22;36703;48.154;17.126;2022-12-07T06:16:56;9.60;56.40
50738;DHT22;36703;48.154;17.126;2022-12-07T06:20:58;9.60;56.40
50738;DHT22;36703;48.154;17.126;2022-12-07T06:24:59;9.60;56.30
50738;DHT22;36703;48.154;17.126;2022-12-07T06:29:02;9.70;56.30
50738;DHT22;36703;48.154;17.126;2022-12-07T06:33:04;9.60;56.20
50738;DHT22;36703;48.154;17.126;2022-12-07T06:37:06;9.70;56.30
50738;DHT22;36703;48.154;17.126;2022-12-07T06:41:07;9.60;56.20
50738;DHT22;36703;48.154;17.126;2022-12-07T06:45:09;9.70;56.20
50738;DHT22;36703;48.154;17.126;2022-12-07T06:49:11;9.70;56.10
50738;DHT22;36703;48.154;17.126;2022-12-07T06:53:14;9.70;56.00
50738;DHT22;36703;48.154;17.126;2022-12-07T06:57:15;9.70;56.00
50738;DHT22;36703;48.154;17.126;2022-12-07T07:01:18;9.70;56.00
50738;DHT22;36703;48.154;17.126;2022-12-07T07:05:19;9.80;56.00
50738;DHT22;36703;48.154;17.126;2022-12-07T07:09:23;9.80;55.90
50738;DHT22;36703;48.154;17.126;2022-12-07T07:13:25;9.90;55.90
50738;DHT22;36703;48.154;17.126;2022-12-07T07:17:27;9.90;55.80
50738;DHT22;36703;48.154;17.126;2022-12-07T07:21:29;9.90;55.70
50738;DHT22;36703;48.154;17.126;2022-12-07T07:25:31;10.00;55.70
50738;DHT22;36703;48.154;17.126;2022-12-07T07:29:33;10.00;55.60
50738;DHT22;36703;48.154;17.126;2022-12-07T07:33:35;10.00;55.50
50738;DHT22;36703;48.154;17.126;2022-12-07T07:37:36;10.00;55.50
50738;DHT22;36703;48.154;17.126;2022-12-07T07:41:38;10.00;55.50
50738;DHT22;36703;48.154;17.126;2022-12-07T07:45:40;10.00;55.50
50738;DHT22;36703;48.154;17.126;2022-12-07T07:49:41;10.00;55.40
50738;DHT22;36703;48.154;17.126;2022-12-07T07:53:43;10.00;55.40
50738;DHT22;36703;48.154;17.126;2022-12-07T07:57:44;10.00;55.40
50738;DHT22;36703;48.154;17.126;2022-12-07T08:01:46;10.00;55.50
50738;DHT22;36703;48.154;17.126;2022-12-07T08:05:47;10.00;55.40
50738;DHT22;36703;48.154;17.126;2022-12-07T08:09:49;10.00;56.00
50738;DHT22;36703;48.154;17.126;2022-12-07T08:13:51;10.00;55.40
50738;DHT22;36703;48.154;17.126;2022-12-07T08:17:52;10.00;55.40
50738;DHT22;36703;48.154;17.126;2022-12-07T08:21:54;10.00;55.40
50738;DHT22;36703;48.154;17.126;2022-12-07T08:26:04;10.00;55.30
50738;DHT22;36703;48.154;17.126;2022-12-07T08:30:07;10.00;55.40
50738;DHT22;36703;48.154;17.126;2022-12-07T08:34:13;10.10;55.40
50738;DHT22;36703;48.154;17.126;2022-12-07T08:38:15;10.10;55.30
50738;DHT22;36703;48.154;17.126;2022-12-07T08:42:16;10.10;55.30
50738;DHT22;36703;48.154;17.126;2022-12-07T08:46:28;10.10;55.40
50738;DHT22;36703;48.154;17.126;2022-12-07T08:50:39;10.10;55.30
50738;DHT22;36703;48.154;17.126;2022-12-07T08:54:41;10.10;56.00
50738;DHT22;36703;48.154;17.126;2022-12-07T08:58:43;10.10;55.40
50738;DHT22;36703;48.154;17.126;2022-12-07T09:02:46;10.00;55.40
50738;DHT22;36703;48.154;17.126;2022-12-07T09:06:47;9.90;55.60
50738;DHT22;36703;48.154;17.126;2022-12-07T09:10:49;9.90;55.80
50738;DHT22;36703;48.154;17.126;2022-12-07T09:14:51;9.80;55.90
50738;DHT22;36703;48.154;17.126;2022-12-07T09:18:53;9.80;56.10
50738;DHT22;36703;48.154;17.126;2022-12-07T09:22:55;9.70;56.20
50738;DHT22;36703;48.154;17.126;2022-12-07T09:26:57;9.70;56.20
50738;DHT22;36703;48.154;17.126;2022-12-07T09:30:59;9.60;56.20
50738;DHT22;36703;48.154;17.126;2022-12-07T09:35:00;9.60;56.30
50738;DHT22;36703;48.154;17.126;2022-12-07T09:39:03;9.60;56.30
50738;DHT22;36703;48.154;17.126;2022-12-07T09:43:12;9.60;56.20
50738;DHT22;36703;48.154;17.126;2022-12-07T09:47:16;9.60;56.10
50738;DHT22;36703;48.154;17.126;2022-12-07T09:51:22;9.60;56.00
50738;DHT22;36703;48.154;17.126;2022-12-07T09:55:27;9.70;56.00
50738;DHT22;36703;48.154;17.126;2022-12-07T09:59:30;9.80;55.90
50738;DHT22;36703;48.154;17.126;2022-12-07T10:03:32;9.90;55.70
50738;DHT22;36703;48.154;17.126;2022-12-07T10:07:33;10.10;55.70
50738;DHT22;36703;48.154;17.126;2022-12-07T10:11:35;10.60;55.30
50738;DHT22;36703;48.154;17.126;2022-12-07T10:20:26;11.70;72.50
50738;DHT22;36703;48.154;17.126;2022-12-07T10:24:28;11.90;74.00
50738;DHT22;36703;48.154;17.126;2022-12-07T10:28:34;11.90;73.50
50738;DHT22;36703;48.154;17.126;2022-12-07T10:40:41;12.20;55.50
50738;DHT22;36703;48.154;17.126;2022-12-07T10:44:42;12.60;74.70
50738;DHT22;36703;48.154;17.126;2022-12-07T10:48:54;12.30;73.90
50738;DHT22;36703;48.154;17.126;2022-12-07T10:57:59;12.30;73.50
50738;DHT22;36703;48.154;17.126;2022-12-07T11:16:03;12.10;70.60
50738;DHT22;36703;48.154;17.126;2022-12-07T11:20:39;12.50;70.90
50738;DHT22;36703;48.154;17.126;2022-12-07T11:34:06;13.40;67.60
50738;DHT22;36703;48.154;17.126;2022-12-07T11:38:14;13.50;54.20
50738;DHT22;36703;48.154;17.126;2022-12-07T11:42:24;13.30;54.10
50738;DHT22;36703;48.154;17.126;2022-12-07T11:50:55;12.90;54.50
50738;DHT22;36703;48.154;17.126;2022-12-07T11:54:59;12.70;54.70
50738;DHT22;36703;48.154;17.126;2022-12-07T11:59:12;12.60;54.60
50738;DHT22;36703;48.154;17.126;2022-12-07T12:03:30;12.40;53.80
50738;DHT22;36703;48.154;17.126;2022-12-07T12:07:36;12.20;53.70
50738;DHT22;36703;48.154;17.126;2022-12-07T12:21:06;11.70;51.80
50738;DHT22;36703;48.154;17.126;2022-12-07T12:25:22;11.60;51.40
50738;DHT22;36703;48.154;17.126;2022-12-07T12:29:45;11.50;51.40
50738;DHT22;36703;48.154;17.126;2022-12-07T12:33:56;11.50;51.20
50738;DHT22;36703;48.154;17.126;2022-12-07T12:42:53;11.60;51.10
50738;DHT22;36703;48.154;17.126;2022-12-07T12:47:04;11.60;50.80
50738;DHT22;36703;48.154;17.126;2022-12-07T12:51:43;11.50;50.80
50738;DHT22;36703;48.154;17.126;2022-12-07T13:00:23;11.40;50.70
50738;DHT22;36703;48.154;17.126;2022-12-07T13:08:59;11.80;50.60
50738;DHT22;36703;48.154;17.126;2022-12-07T13:17:11;12.10;49.50
50738;DHT22;36703;48.154;17.126;2022-12-07T13:25:29;12.60;47.30
50738;DHT22;36703;48.154;17.126;2022-12-07T13:29:36;12.80;46.60
50738;DHT22;36703;48.154;17.126;2022-12-07T13:33:41;13.00;46.10
50738;DHT22;36703;48.154;17.126;2022-12-07T13:37:44;13.20;45.20
50738;DHT22;36703;48.154;17.126;2022-12-07T13:41:54;13.20;44.80
50738;DHT22;36703;48.154;17.126;2022-12-07T13:45:58;13.30;44.70
50738;DHT22;36703;48.154;17.126;2022-12-07T13:50:20;13.30;44.40
50738;DHT22;36703;48.154;17.126;2022-12-07T13:54:26;13.30;44.10
50738;DHT22;36703;48.154;17.126;2022-12-07T13:58:30;13.40;44.30
50738;DHT22;36703;48.154;17.126;2022-12-07T14:02:34;13.40;43.90
50738;DHT22;36703;48.154;17.126;2022-12-07T14:06:36;13.40;43.90
50738;DHT22;36703;48.154;17.126;2022-12-07T14:10:56;13.50;43.90
50738;DHT22;36703;48.154;17.126;2022-12-07T14:14:59;13.40;43.80
50738;DHT22;36703;48.154;17.126;2022-12-07T14:19:04;13.30;44.00
50738;DHT22;36703;48.154;17.126;2022-12-07T14:23:24;13.10;44.30
50738;DHT22;36703;48.154;17.126;2022-12-07T14:27:31;13.00;44.60
50738;DHT22;36703;48.154;17.126;2022-12-07T14:31:35;13.00;44.80
50738;DHT22;36703;48.154;17.126;2022-12-07T14:35:37;12.90;45.30
50738;DHT22;36703;48.154;17.126;2022-12-07T14:39:44;12.80;45.30
50738;DHT22;36703;48.154;17.126;2022-12-07T14:43:45;12.70;45.40
50738;DHT22;36703;48.154;17.126;2022-12-07T14:47:47;12.60;45.50
50738;DHT22;36703;48.154;17.126;2022-12-07T14:51:49;12.50;45.60
50738;DHT22;36703;48.154;17.126;2022-12-07T14:55:51;12.30;46.20
50738;DHT22;36703;48.154;17.126;2022-12-07T14:59:52;12.10;46.50
50738;DHT22;36703;48.154;17.126;2022-12-07T15:03:54;11.80;47.20
50738;DHT22;36703;48.154;17.126;2022-12-07T15:07:55;11.70;47.30
50738;DHT22;36703;48.154;17.126;2022-12-07T15:11:57;11.60;47.60
50738;DHT22;36703;48.154;17.126;2022-12-07T15:15:59;11.60;47.60
50738;DHT22;36703;48.154;17.126;2022-12-07T15:20:02;11.60;47.70
50738;DHT22;36703;48.154;17.126;2022-12-07T15:24:04;11.60;47.80
50738;DHT22;36703;48.154;17.126;2022-12-07T15:28:06;11.50;48.20
50738;DHT22;36703;48.154;17.126;2022-12-07T15:36:19;11.40;48.40
50738;DHT22;36703;48.154;17.126;2022-12-07T15:40:22;11.20;48.80
50738;DHT22;36703;48.154;17.126;2022-12-07T15:44:24;11.20;49.00
50738;DHT22;36703;48.154;17.126;2022-12-07T15:48:45;11.10;49.30
50738;DHT22;36703;48.154;17.126;2022-12-07T15:52:53;11.10;49.10
50738;DHT22;36703;48.154;17.126;2022-12-07T15:56:55;11.50;49.20
50738;DHT22;36703;48.154;17.126;2022-12-07T16:00:57;11.20;49.20
50738;DHT22;36703;48.154;17.126;2022-12-07T16:04:59;11.20;49.40
50738;DHT22;36703;48.154;17.126;2022-12-07T16:09:01;11.20;49.50
50738;DHT22;36703;48.154;17.126;2022-12-07T16:13:02;11.20;49.40
50738;DHT22;36703;48.154;17.126;2022-12-07T16:17:05;11.20;49.90
50738;DHT22;36703;48.154;17.126;2022-12-07T16:21:07;11.20;49.40
50738;DHT22;36703;48.154;17.126;2022-12-07T16:25:09;11.20;49.80
50738;DHT22;36703;48.154;17.126;2022-12-07T16:29:12;11.20;49.60
50738;DHT22;36703;48.154;17.126;2022-12-07T16:33:14;11.20;49.60
50738;DHT22;36703;48.154;17.126;2022-12-07T16:37:15;11.20;49.80
50738;DHT22;36703;48.154;17.126;2022-12-07T16:41:17;11.10;50.00
50738;DHT22;36703;48.154;17.126;2022-12-07T16:45:19;11.10;49.90
50738;DHT22;36703;48.154;17.126;2022-12-07T16:49:20;11.10;50.10
50738;DHT22;36703;48.154;17.126;2022-12-07T16:53:23;11.10;50.20
50738;DHT22;36703;48.154;17.126;2022-12-07T16:57:25;11.00;50.00
50738;DHT22;36703;48.154;17.126;2022-12-07T17:01:27;11.00;50.20
50738;DHT22;36703;48.154;17.126;2022-12-07T17:05:29;10.90;50.20
50738;DHT22;36703;48.154;17.126;2022-12-07T17:09:31;10.90;51.80
50738;DHT22;36703;48.154;17.126;2022-12-07T17:13:33;10.70;51.90
50738;DHT22;36703;48.154;17.126;2022-12-07T17:17:55;10.70;51.70
50738;DHT22;36703;48.154;17.126;2022-12-07T17:21:58;10.70;51.70
50738;DHT22;36703;48.154;17.126;2022-12-07T17:26:08;10.70;51.80
50738;DHT22;36703;48.154;17.126;2022-12-07T17:30:12;10.60;51.60
50738;DHT22;36703;48.154;17.126;2022-12-07T17:34:15;10.60;51.90
50738;DHT22;36703;48.154;17.126;2022-12-07T17:38:17;10.60;51.80
50738;DHT22;36703;48.154;17.126;2022-12-07T17:42:18;10.60;51.90
50738;DHT22;36703;48.154;17.126;2022-12-07T17:46:40;10.50;51.70
50738;DHT22;36703;48.154;17.126;2022-12-07T17:50:42;10.50;51.60
50738;DHT22;36703;48.154;17.126;2022-12-07T17:55:02;10.50;51.00
50738;DHT22;36703;48.154;17.126;2022-12-07T17:59:05;10.50;50.60
50738;DHT22;36703;48.154;17.126;2022-12-07T18:03:07;10.60;50.30
50738;DHT22;36703;48.154;17.126;2022-12-07T18:07:11;10.70;50.40
50738;DHT22;36703;48.154;17.126;2022-12-07T18:11:12;10.60;50.20
50738;DHT22;36703;48.154;17.126;2022-12-07T18:15:14;10.50;50.20
50738;DHT22;36703;48.154;17.126;2022-12-07T18:19:15;10.50;50.10
50738;DHT22;36703;48.154;17.126;2022-12-07T18:23:17;10.50;50.10
50738;DHT22;36703;48.154;17.126;2022-12-07T18:27:20;10.60;50.10
50738;DHT22;36703;48.154;17.126;2022-12-07T18:31:22;10.50;50.20
50738;DHT22;36703;48.154;17.126;2022-12-07T18:35:24;10.50;50.10
50738;DHT22;36703;48.154;17.126;2022-12-07T18:39:25;10.50;50.00
50738;DHT22;36703;48.154;17.126;2022-12-07T18:43:27;10.50;50.00
50738;DHT22;36703;48.154;17.126;2022-12-07T18:47:29;10.50;49.90
50738;DHT22;36703;48.154;17.126;2022-12-07T18:51:31;10.50;49.70
50738;DHT22;36703;48.154;17.126;2022-12-07T18:55:33;10.60;49.60
50738;DHT22;36703;48.154;17.126;2022-12-07T18:59:34;10.50;49.60
50738;DHT22;36703;48.154;17.126;2022-12-07T19:03:48;10.50;49.60
50738;DHT22;36703;48.154;17.126;2022-12-07T19:07:50;10.50;49.60
50738;DHT22;36703;48.154;17.126;2022-12-07T19:11:52;10.50;49.50
50738;DHT22;36703;48.154;17.126;2022-12-07T19:15:54;10.50;49.60
50738;DHT22;36703;48.154;17.126;2022-12-07T19:19:56;10.50;49.60
50738;DHT22;36703;48.154;17.126;2022-12-07T19:23:58;10.40;49.60
50738;DHT22;36703;48.154;17.126;2022-12-07T19:27:59;10.50;49.70
50738;DHT22;36703;48.154;17.126;2022-12-07T19:32:02;10.50;49.50
50738;DHT22;36703;48.154;17.126;2022-12-07T19:36:05;10.60;49.30
50738;DHT22;36703;48.154;17.126;2022-12-07T19:40:07;10.60;49.40
50738;DHT22;36703;48.154;17.126;2022-12-07T19:48:12;10.60;49.70
50738;DHT22;36703;48.154;17.126;2022-12-07T19:52:14;10.60;49.30
50738;DHT22;36703;48.154;17.126;2022-12-07T19:56:20;10.60;49.40
50738;DHT22;36703;48.154;17.126;2022-12-07T20:00:22;10.60;49.20
50738;DHT22;36703;48.154;17.126;2022-12-07T20:04:26;10.60;49.40
50738;DHT22;36703;48.154;17.126;2022-12-07T20:08:30;10.50;49.90
50738;DHT22;36703;48.154;17.126;2022-12-07T20:12:31;10.40;49.60
50738;DHT22;36703;48.154;17.126;2022-12-07T20:16:52;10.40;49.50
50738;DHT22;36703;48.154;17.126;2022-12-07T20:20:58;10.40;49.60
50738;DHT22;36703;48.154;17.126;2022-12-07T20:25:00;10.40;49.50
50738;DHT22;36703;48.154;17.126;2022-12-07T20:29:08;10.50;49.50
50738;DHT22;36703;48.154;17.126;2022-12-07T20:33:11;10.40;49.80
50738;DHT22;36703;48.154;17.126;2022-12-07T20:37:13;10.20;58.10
50738;DHT22;36703;48.154;17.126;2022-12-07T20:41:14;10.20;57.80
50738;DHT22;36703;48.154;17.126;2022-12-07T20:45:34;10.10;56.50
50738;DHT22;36703;48.154;17.126;2022-12-07T20:49:36;10.00;57.70
50738;DHT22;36703;48.154;17.126;2022-12-07T20:53:37;10.00;57.40
50738;DHT22;36703;48.154;17.126;2022-12-07T20:57:39;10.20;57.10
50738;DHT22;36703;48.154;17.126;2022-12-07T21:01:42;10.10;56.80
50738;DHT22;36703;48.154;17.126;2022-12-07T21:05:43;10.00;56.10
50738;DHT22;36703;48.154;17.126;2022-12-07T21:09:45;9.90;56.70
50738;DHT22;36703;48.154;17.126;2022-12-07T21:13:46;9.90;58.30
50738;DHT22;36703;48.154;17.126;2022-12-07T21:17:48;9.80;58.60
50738;DHT22;36703;48.154;17.126;2022-12-07T21:21:50;9.90;57.80
50738;DHT22;36703;48.154;17.126;2022-12-07T21:25:52;10.00;58.30
50738;DHT22;36703;48.154;17.126;2022-12-07T21:29:54;10.00;58.10
50738;DHT22;36703;48.154;17.126;2022-12-07T21:33:55;9.90;74.30
50738;DHT22;36703;48.154;17.126;2022-12-07T21:37:57;9.60;74.20
50738;DHT22;36703;48.154;17.126;2022-12-07T21:41:58;9.40;50.40
50738;DHT22;36703;48.154;17.126;2022-12-07T21:46:00;9.30;48.50
50738;DHT22;36703;48.154;17.126;2022-12-07T21:50:01;9.20;56.10
50738;DHT22;36703;48.154;17.126;2022-12-07T21:54:03;9.20;62.50
50738;DHT22;36703;48.154;17.126;2022-12-07T21:58:05;9.10;73.90
50738;DHT22;36703;48.154;17.126;2022-12-07T22:06:16;8.90;87.80
50738;DHT22;36703;48.154;17.126;2022-12-07T22:10:27;8.90;76.30
50738;DHT22;36703;48.154;17.126;2022-12-07T22:14:29;8.80;72.30
50738;DHT22;36703;48.154;17.126;2022-12-07T22:18:49;8.90;69.70
50738;DHT22;36703;48.154;17.126;2022-12-07T22:22:52;9.00;68.60
50738;DHT22;36703;48.154;17.126;2022-12-07T22:26:54;9.00;67.50
50738;DHT22;36703;48.154;17.126;2022-12-07T22:31:04;9.00;67.00
50738;DHT22;36703;48.154;17.126;2022-12-07T22:35:07;9.00;66.70
50738;DHT22;36703;48.154;17.126;2022-12-07T22:39:09;9.00;66.60
50738;DHT22;36703;48.154;17.126;2022-12-07T22:43:11;9.00;66.70
50738;DHT22;36703;48.154;17.126;2022-12-07T22:47:12;9.00;66.60
50738;DHT22;36703;48.154;17.126;2022-12-07T22:55:24;8.90;66.00
50738;DHT22;36703;48.154;17.126;2022-12-07T22:59:26;8.80;66.20
50738;DHT22;36703;48.154;17.126;2022-12-07T23:03:27;8.80;66.60
50738;DHT22;36703;48.154;17.126;2022-12-07T23:07:29;8.80;66.50
50738;DHT22;36703;48.154;17.126;2022-12-07T23:11:32;8.90;66.40
50738;DHT22;36703;48.154;17.126;2022-12-07T23:15:53;9.00;66.30
50738;DHT22;36703;48.154;17.126;2022-12-07T23:19:55;9.00;66.10
50738;DHT22;36703;48.154;17.126;2022-12-07T23:23:57;9.10;65.80
50738;DHT22;36703;48.154;17.126;2022-12-07T23:27:58;9.10;65.50
50738;DHT22;36703;48.154;17.126;2022-12-07T23:32:00;9.10;65.70
50738;DHT22;36703;48.154;17.126;2022-12-07T23:40:12;9.00;65.60
50738;DHT22;36703;48.154;17.126;2022-12-07T23:44:13;9.10;65.70
50738;DHT22;36703;48.154;17.126;2022-12-07T23:48:15;9.10;65.90
50738;DHT22;36703;48.154;17.126;2022-12-07T23:52:16;9.00;65.90
50738;DHT22;36703;48.154;17.126;2022-12-07T23:56:20;9.00;66.20
